sensor_id;sensor_type;location;lat;lon;timestamp;pressure;altitude;pressure_sealevel;temperature
73894;BMP280;62699;50.534;12.784;2023-04-06T00:02:24;96601.41;;;0.59
73894;BMP280;62699;50.534;12.784;2023-04-06T00:07:25;96604.63;;;0.67
73894;BMP280;62699;50.534;12.784;2023-04-06T00:12:26;96600.81;;;0.68
73894;BMP280;62699;50.534;12.784;2023-04-06T00:17:27;96587.97;;;0.66
73894;BMP280;62699;50.534;12.784;2023-04-06T00:22:28;96598.91;;;0.68
73894;BMP280;62699;50.534;12.784;2023-04-06T00:27:28;96589.22;;;0.62
73894;BMP280;62699;50.534;12.784;2023-04-06T00:32:29;96590.69;;;0.63
73894;BMP280;62699;50.534;12.784;2023-04-06T00:37:29;96589.88;;;0.66
73894;BMP280;62699;50.534;12.784;2023-04-06T00:42:30;96597.00;;;0.69
73894;BMP280;62699;50.534;12.784;2023-04-06T00:47:31;96593.50;;;0.72
73894;BMP280;62699;50.534;12.784;2023-04-06T00:52:31;96584.41;;;0.73
73894;BMP280;62699;50.534;12.784;2023-04-06T00:57:32;96585.56;;;0.72
73894;BMP280;62699;50.534;12.784;2023-04-06T01:02:32;96580.69;;;0.70
73894;BMP280;62699;50.534;12.784;2023-04-06T01:07:32;96572.31;;;0.72
73894;BMP280;62699;50.534;12.784;2023-04-06T01:12:32;96574.97;;;0.72
73894;BMP280;62699;50.534;12.784;2023-04-06T01:17:33;96573.81;;;0.73
73894;BMP280;62699;50.534;12.784;2023-04-06T01:22:35;96580.53;;;0.78
73894;BMP280;62699;50.534;12.784;2023-04-06T01:27:36;96570.66;;;0.78
73894;BMP280;62699;50.534;12.784;2023-04-06T01:32:36;96575.97;;;0.78
73894;BMP280;62699;50.534;12.784;2023-04-06T01:37:36;96573.66;;;0.80
73894;BMP280;62699;50.534;12.784;2023-04-06T01:42:36;96575.44;;;0.83
73894;BMP280;62699;50.534;12.784;2023-04-06T01:47:37;96565.19;;;0.85
73894;BMP280;62699;50.534;12.784;2023-04-06T01:52:37;96571.91;;;0.90
73894;BMP280;62699;50.534;12.784;2023-04-06T01:57:37;96561.72;;;0.88
73894;BMP280;62699;50.534;12.784;2023-04-06T02:02:38;96570.75;;;0.91
73894;BMP280;62699;50.534;12.784;2023-04-06T02:07:39;96556.75;;;0.90
73894;BMP280;62699;50.534;12.784;2023-04-06T02:12:39;96557.91;;;0.89
73894;BMP280;62699;50.534;12.784;2023-04-06T02:17:40;96558.31;;;0.88
73894;BMP280;62699;50.534;12.784;2023-04-06T02:22:42;96566.50;;;0.93
73894;BMP280;62699;50.534;12.784;2023-04-06T02:27:43;96560.44;;;0.93
73894;BMP280;62699;50.534;12.784;2023-04-06T02:32:43;96545.28;;;0.93
73894;BMP280;62699;50.534;12.784;2023-04-06T02:37:44;96551.00;;;0.92
73894;BMP280;62699;50.534;12.784;2023-04-06T02:42:45;96538.09;;;0.94
73894;BMP280;62699;50.534;12.784;2023-04-06T02:47:46;96540.75;;;0.94
73894;BMP280;62699;50.534;12.784;2023-04-06T02:52:46;96542.97;;;0.95
73894;BMP280;62699;50.534;12.784;2023-04-06T02:57:49;96539.25;;;0.93
73894;BMP280;62699;50.534;12.784;2023-04-06T03:02:49;96540.09;;;0.90
73894;BMP280;62699;50.534;12.784;2023-04-06T03:07:50;96550.78;;;0.86
73894;BMP280;62699;50.534;12.784;2023-04-06T03:12:50;96540.38;;;0.79
73894;BMP280;62699;50.534;12.784;2023-04-06T03:17:51;96549.13;;;0.76
73894;BMP280;62699;50.534;12.784;2023-04-06T03:22:52;96548.81;;;0.74
73894;BMP280;62699;50.534;12.784;2023-04-06T03:27:52;96555.66;;;0.71
73894;BMP280;62699;50.534;12.784;2023-04-06T03:32:52;96550.38;;;0.71
73894;BMP280;62699;50.534;12.784;2023-04-06T03:37:53;96548.16;;;0.70
73894;BMP280;62699;50.534;12.784;2023-04-06T03:42:53;96555.78;;;0.68
73894;BMP280;62699;50.534;12.784;2023-04-06T03:47:53;96555.03;;;0.67
73894;BMP280;62699;50.534;12.784;2023-04-06T03:52:53;96562.56;;;0.69
73894;BMP280;62699;50.534;12.784;2023-04-06T03:57:54;96556.13;;;0.70
73894;BMP280;62699;50.534;12.784;2023-04-06T04:02:55;96566.72;;;0.70
73894;BMP280;62699;50.534;12.784;2023-04-06T04:07:57;96566.25;;;0.71
73894;BMP280;62699;50.534;12.784;2023-04-06T04:12:58;96573.81;;;0.73
73894;BMP280;62699;50.534;12.784;2023-04-06T04:17:59;96570.84;;;0.71
73894;BMP280;62699;50.534;12.784;2023-04-06T04:22:59;96565.56;;;0.71
73894;BMP280;62699;50.534;12.784;2023-04-06T04:27:59;96573.41;;;0.74
73894;BMP280;62699;50.534;12.784;2023-04-06T04:33:00;96573.00;;;0.76
73894;BMP280;62699;50.534;12.784;2023-04-06T04:38:00;96574.41;;;0.81
73894;BMP280;62699;50.534;12.784;2023-04-06T04:43:00;96577.28;;;0.86
73894;BMP280;62699;50.534;12.784;2023-04-06T04:48:00;96583.25;;;0.90
73894;BMP280;62699;50.534;12.784;2023-04-06T04:53:01;96575.13;;;0.97
73894;BMP280;62699;50.534;12.784;2023-04-06T04:58:01;96587.44;;;1.04
73894;BMP280;62699;50.534;12.784;2023-04-06T05:03:03;96586.53;;;1.10
73894;BMP280;62699;50.534;12.784;2023-04-06T05:08:06;96578.72;;;1.20
73894;BMP280;62699;50.534;12.784;2023-04-06T05:13:06;96590.41;;;1.35
73894;BMP280;62699;50.534;12.784;2023-04-06T05:18:07;96592.03;;;1.45
73894;BMP280;62699;50.534;12.784;2023-04-06T05:23:08;96593.91;;;1.61
73894;BMP280;62699;50.534;12.784;2023-04-06T05:28:08;96591.59;;;1.75
73894;BMP280;62699;50.534;12.784;2023-04-06T05:33:09;96594.16;;;1.92
73894;BMP280;62699;50.534;12.784;2023-04-06T05:38:10;96589.50;;;2.08
73894;BMP280;62699;50.534;12.784;2023-04-06T05:43:10;96603.75;;;2.27
73894;BMP280;62699;50.534;12.784;2023-04-06T05:48:10;96593.84;;;2.53
73894;BMP280;62699;50.534;12.784;2023-04-06T05:53:11;96591.75;;;2.82
73894;BMP280;62699;50.534;12.784;2023-04-06T05:58:11;96601.94;;;3.18
73894;BMP280;62699;50.534;12.784;2023-04-06T06:03:12;96598.78;;;3.54
73894;BMP280;62699;50.534;12.784;2023-04-06T06:08:12;96601.22;;;3.92
73894;BMP280;62699;50.534;12.784;2023-04-06T06:13:14;96604.84;;;4.16
73894;BMP280;62699;50.534;12.784;2023-04-06T06:18:14;96612.19;;;4.43
73894;BMP280;62699;50.534;12.784;2023-04-06T06:23:14;96611.50;;;4.70
73894;BMP280;62699;50.534;12.784;2023-04-06T06:28:15;96615.06;;;5.13
73894;BMP280;62699;50.534;12.784;2023-04-06T06:33:15;96609.63;;;5.76
73894;BMP280;62699;50.534;12.784;2023-04-06T06:38:16;96608.88;;;6.18
73894;BMP280;62699;50.534;12.784;2023-04-06T06:43:16;96615.22;;;5.97
73894;BMP280;62699;50.534;12.784;2023-04-06T06:48:16;96619.94;;;6.02
73894;BMP280;62699;50.534;12.784;2023-04-06T06:53:16;96618.34;;;6.28
73894;BMP280;62699;50.534;12.784;2023-04-06T06:58:20;96621.59;;;6.80
73894;BMP280;62699;50.534;12.784;2023-04-06T07:03:20;96625.06;;;7.98
73894;BMP280;62699;50.534;12.784;2023-04-06T07:08:22;96624.53;;;7.20
73894;BMP280;62699;50.534;12.784;2023-04-06T07:13:22;96625.28;;;6.82
73894;BMP280;62699;50.534;12.784;2023-04-06T07:18:23;96621.81;;;6.43
73894;BMP280;62699;50.534;12.784;2023-04-06T07:23:23;96625.25;;;6.68
73894;BMP280;62699;50.534;12.784;2023-04-06T07:28:24;96622.28;;;7.92
73894;BMP280;62699;50.534;12.784;2023-04-06T07:33:24;96627.75;;;6.86
73894;BMP280;62699;50.534;12.784;2023-04-06T07:38:25;96627.94;;;7.06
73894;BMP280;62699;50.534;12.784;2023-04-06T07:43:25;96618.75;;;7.51
73894;BMP280;62699;50.534;12.784;2023-04-06T07:48:25;96621.34;;;7.95
73894;BMP280;62699;50.534;12.784;2023-04-06T07:53:27;96622.66;;;9.27
73894;BMP280;62699;50.534;12.784;2023-04-06T07:58:27;96624.22;;;12.33
73894;BMP280;62699;50.534;12.784;2023-04-06T08:03:27;96628.34;;;10.50
73894;BMP280;62699;50.534;12.784;2023-04-06T08:08:31;96629.88;;;10.57
73894;BMP280;62699;50.534;12.784;2023-04-06T08:13:33;96634.88;;;12.09
73894;BMP280;62699;50.534;12.784;2023-04-06T08:18:33;96629.56;;;12.91
73894;BMP280;62699;50.534;12.784;2023-04-06T08:23:34;96633.69;;;11.21
73894;BMP280;62699;50.534;12.784;2023-04-06T08:28:35;96626.31;;;10.29
73894;BMP280;62699;50.534;12.784;2023-04-06T08:33:36;96625.47;;;9.69
73894;BMP280;62699;50.534;12.784;2023-04-06T08:38:40;96638.53;;;9.87
73894;BMP280;62699;50.534;12.784;2023-04-06T08:43:44;96640.06;;;10.42
73894;BMP280;62699;50.534;12.784;2023-04-06T08:48:49;96636.25;;;10.06
73894;BMP280;62699;50.534;12.784;2023-04-06T08:53:53;96630.06;;;9.63
73894;BMP280;62699;50.534;12.784;2023-04-06T08:58:55;96631.94;;;9.57
73894;BMP280;62699;50.534;12.784;2023-04-06T09:03:58;96628.59;;;8.44
73894;BMP280;62699;50.534;12.784;2023-04-06T09:08:59;96620.34;;;8.88
73894;BMP280;62699;50.534;12.784;2023-04-06T09:14:01;96616.63;;;8.60
73894;BMP280;62699;50.534;12.784;2023-04-06T09:19:05;96617.75;;;8.53
73894;BMP280;62699;50.534;12.784;2023-04-06T09:24:07;96607.25;;;8.55
73894;BMP280;62699;50.534;12.784;2023-04-06T09:29:07;96603.75;;;9.15
73894;BMP280;62699;50.534;12.784;2023-04-06T09:34:08;96608.44;;;9.83
73894;BMP280;62699;50.534;12.784;2023-04-06T09:39:08;96603.75;;;9.73
73894;BMP280;62699;50.534;12.784;2023-04-06T09:44:12;96598.31;;;9.67
73894;BMP280;62699;50.534;12.784;2023-04-06T09:49:13;96594.25;;;8.08
73894;BMP280;62699;50.534;12.784;2023-04-06T09:54:25;96593.91;;;8.41
73894;BMP280;62699;50.534;12.784;2023-04-06T10:05:09;96596.94;;;8.48
73894;BMP280;62699;50.534;12.784;2023-04-06T10:10:22;96596.94;;;8.68
73894;BMP280;62699;50.534;12.784;2023-04-06T10:15:30;96596.94;;;8.68
73894;BMP280;62699;50.534;12.784;2023-04-06T10:25:57;96593.78;;;8.70
73894;BMP280;62699;50.534;12.784;2023-04-06T10:31:02;96578.31;;;9.11
73894;BMP280;62699;50.534;12.784;2023-04-06T10:36:21;96578.63;;;9.81
73894;BMP280;62699;50.534;12.784;2023-04-06T10:41:40;96582.03;;;10.24
73894;BMP280;62699;50.534;12.784;2023-04-06T10:46:52;96572.59;;;9.55
73894;BMP280;62699;50.534;12.784;2023-04-06T10:51:56;96562.34;;;10.66
73894;BMP280;62699;50.534;12.784;2023-04-06T10:56:58;96561.88;;;10.73
73894;BMP280;62699;50.534;12.784;2023-04-06T11:01:58;96549.59;;;10.61
73894;BMP280;62699;50.534;12.784;2023-04-06T11:07:00;96556.84;;;10.33
73894;BMP280;62699;50.534;12.784;2023-04-06T11:12:00;96550.22;;;10.23
73894;BMP280;62699;50.534;12.784;2023-04-06T11:17:01;96543.78;;;11.13
73894;BMP280;62699;50.534;12.784;2023-04-06T11:22:07;96544.75;;;11.21
73894;BMP280;62699;50.534;12.784;2023-04-06T11:27:07;96535.84;;;11.70
73894;BMP280;62699;50.534;12.784;2023-04-06T11:32:08;96525.59;;;11.69
73894;BMP280;62699;50.534;12.784;2023-04-06T11:37:10;96538.59;;;10.98
73894;BMP280;62699;50.534;12.784;2023-04-06T11:42:11;96523.19;;;11.10
73894;BMP280;62699;50.534;12.784;2023-04-06T11:47:14;96524.63;;;10.55
73894;BMP280;62699;50.534;12.784;2023-04-06T11:57:21;96502.31;;;10.32
73894;BMP280;62699;50.534;12.784;2023-04-06T12:02:21;96503.22;;;10.18
73894;BMP280;62699;50.534;12.784;2023-04-06T12:07:23;96494.63;;;10.03
73894;BMP280;62699;50.534;12.784;2023-04-06T12:12:23;96494.72;;;9.72
73894;BMP280;62699;50.534;12.784;2023-04-06T12:17:23;96498.69;;;10.74
73894;BMP280;62699;50.534;12.784;2023-04-06T12:22:24;96485.25;;;10.63
73894;BMP280;62699;50.534;12.784;2023-04-06T12:27:25;96489.66;;;11.16
73894;BMP280;62699;50.534;12.784;2023-04-06T12:32:25;96484.78;;;11.95
73894;BMP280;62699;50.534;12.784;2023-04-06T12:37:26;96484.25;;;12.02
73894;BMP280;62699;50.534;12.784;2023-04-06T12:42:27;96467.25;;;12.12
73894;BMP280;62699;50.534;12.784;2023-04-06T12:47:27;96469.75;;;11.47
73894;BMP280;62699;50.534;12.784;2023-04-06T12:52:27;96462.72;;;11.05
73894;BMP280;62699;50.534;12.784;2023-04-06T12:57:30;96459.25;;;11.16
73894;BMP280;62699;50.534;12.784;2023-04-06T13:02:31;96460.13;;;11.63
73894;BMP280;62699;50.534;12.784;2023-04-06T13:07:31;96448.16;;;12.05
73894;BMP280;62699;50.534;12.784;2023-04-06T13:12:31;96442.53;;;11.39
73894;BMP280;62699;50.534;12.784;2023-04-06T13:17:31;96442.34;;;11.21
73894;BMP280;62699;50.534;12.784;2023-04-06T13:22:32;96438.97;;;11.04
73894;BMP280;62699;50.534;12.784;2023-04-06T13:27:33;96438.97;;;10.81
73894;BMP280;62699;50.534;12.784;2023-04-06T13:32:35;96424.66;;;11.48
73894;BMP280;62699;50.534;12.784;2023-04-06T13:37:38;96427.19;;;11.86
73894;BMP280;62699;50.534;12.784;2023-04-06T13:42:38;96431.19;;;11.63
73894;BMP280;62699;50.534;12.784;2023-04-06T13:47:40;96423.38;;;11.54
73894;BMP280;62699;50.534;12.784;2023-04-06T13:52:41;96432.06;;;11.08
73894;BMP280;62699;50.534;12.784;2023-04-06T13:57:43;96429.47;;;11.60
73894;BMP280;62699;50.534;12.784;2023-04-06T14:02:45;96416.63;;;11.09
73894;BMP280;62699;50.534;12.784;2023-04-06T14:07:45;96426.72;;;10.91
73894;BMP280;62699;50.534;12.784;2023-04-06T14:12:45;96420.59;;;10.24
73894;BMP280;62699;50.534;12.784;2023-04-06T14:17:45;96419.09;;;10.29
73894;BMP280;62699;50.534;12.784;2023-04-06T14:22:46;96415.22;;;10.80
73894;BMP280;62699;50.534;12.784;2023-04-06T14:27:46;96412.78;;;10.54
73894;BMP280;62699;50.534;12.784;2023-04-06T14:32:46;96417.19;;;10.63
73894;BMP280;62699;50.534;12.784;2023-04-06T14:37:47;96404.22;;;10.72
73894;BMP280;62699;50.534;12.784;2023-04-06T14:42:48;96408.16;;;10.66
73894;BMP280;62699;50.534;12.784;2023-04-06T14:47:50;96396.38;;;10.41
73894;BMP280;62699;50.534;12.784;2023-04-06T14:52:51;96406.91;;;10.72
73894;BMP280;62699;50.534;12.784;2023-04-06T14:57:51;96397.84;;;10.53
73894;BMP280;62699;50.534;12.784;2023-04-06T15:02:52;96395.13;;;10.20
73894;BMP280;62699;50.534;12.784;2023-04-06T15:07:52;96394.63;;;10.27
73894;BMP280;62699;50.534;12.784;2023-04-06T15:12:52;96399.31;;;10.32
73894;BMP280;62699;50.534;12.784;2023-04-06T15:17:53;96389.78;;;10.36
73894;BMP280;62699;50.534;12.784;2023-04-06T15:22:53;96392.69;;;10.27
73894;BMP280;62699;50.534;12.784;2023-04-06T15:27:54;96399.50;;;10.17
73894;BMP280;62699;50.534;12.784;2023-04-06T15:32:59;96406.06;;;9.99
73894;BMP280;62699;50.534;12.784;2023-04-06T15:38:09;96396.50;;;9.87
73894;BMP280;62699;50.534;12.784;2023-04-06T15:43:10;96410.19;;;9.84
73894;BMP280;62699;50.534;12.784;2023-04-06T15:48:10;96392.84;;;9.79
73894;BMP280;62699;50.534;12.784;2023-04-06T15:53:10;96401.13;;;9.70
73894;BMP280;62699;50.534;12.784;2023-04-06T15:58:11;96399.84;;;9.54
73894;BMP280;62699;50.534;12.784;2023-04-06T16:03:11;96403.69;;;9.42
73894;BMP280;62699;50.534;12.784;2023-04-06T16:08:12;96391.94;;;9.40
73894;BMP280;62699;50.534;12.784;2023-04-06T16:13:15;96399.72;;;9.38
73894;BMP280;62699;50.534;12.784;2023-04-06T16:18:15;96391.63;;;9.27
73894;BMP280;62699;50.534;12.784;2023-04-06T16:23:15;96410.59;;;9.12
73894;BMP280;62699;50.534;12.784;2023-04-06T16:28:16;96410.78;;;9.03
73894;BMP280;62699;50.534;12.784;2023-04-06T16:33:16;96416.81;;;8.92
73894;BMP280;62699;50.534;12.784;2023-04-06T16:38:18;96409.16;;;8.79
73894;BMP280;62699;50.534;12.784;2023-04-06T16:43:18;96405.84;;;8.64
73894;BMP280;62699;50.534;12.784;2023-04-06T16:48:19;96404.13;;;8.35
73894;BMP280;62699;50.534;12.784;2023-04-06T16:53:19;96408.34;;;8.16
73894;BMP280;62699;50.534;12.784;2023-04-06T16:58:20;96401.66;;;8.06
73894;BMP280;62699;50.534;12.784;2023-04-06T17:03:20;96404.81;;;7.84
73894;BMP280;62699;50.534;12.784;2023-04-06T17:08:20;96403.09;;;7.61
73894;BMP280;62699;50.534;12.784;2023-04-06T17:13:21;96406.22;;;7.39
73894;BMP280;62699;50.534;12.784;2023-04-06T17:18:21;96400.09;;;7.19
73894;BMP280;62699;50.534;12.784;2023-04-06T17:23:21;96405.28;;;6.93
73894;BMP280;62699;50.534;12.784;2023-04-06T17:28:24;96402.91;;;6.65
73894;BMP280;62699;50.534;12.784;2023-04-06T17:33:26;96419.28;;;6.44
73894;BMP280;62699;50.534;12.784;2023-04-06T17:38:26;96418.34;;;6.17
73894;BMP280;62699;50.534;12.784;2023-04-06T17:43:26;96427.28;;;5.91
73894;BMP280;62699;50.534;12.784;2023-04-06T17:48:27;96433.41;;;5.67
73894;BMP280;62699;50.534;12.784;2023-04-06T17:53:28;96435.44;;;5.39
73894;BMP280;62699;50.534;12.784;2023-04-06T17:58:35;96437.16;;;5.10
73894;BMP280;62699;50.534;12.784;2023-04-06T18:03:36;96449.72;;;4.85
73894;BMP280;62699;50.534;12.784;2023-04-06T18:08:37;96445.72;;;4.62
73894;BMP280;62699;50.534;12.784;2023-04-06T18:13:37;96449.16;;;4.45
73894;BMP280;62699;50.534;12.784;2023-04-06T18:18:39;96453.00;;;4.26
73894;BMP280;62699;50.534;12.784;2023-04-06T18:23:41;96463.06;;;4.12
73894;BMP280;62699;50.534;12.784;2023-04-06T18:28:41;96459.00;;;3.90
73894;BMP280;62699;50.534;12.784;2023-04-06T18:33:42;96466.50;;;3.73
73894;BMP280;62699;50.534;12.784;2023-04-06T18:38:44;96474.91;;;3.62
73894;BMP280;62699;50.534;12.784;2023-04-06T18:43:45;96473.25;;;3.56
73894;BMP280;62699;50.534;12.784;2023-04-06T18:48:45;96479.13;;;3.41
73894;BMP280;62699;50.534;12.784;2023-04-06T18:53:45;96484.19;;;3.27
73894;BMP280;62699;50.534;12.784;2023-04-06T18:58:46;96486.81;;;3.18
73894;BMP280;62699;50.534;12.784;2023-04-06T19:03:50;96490.66;;;2.95
73894;BMP280;62699;50.534;12.784;2023-04-06T19:08:52;96493.59;;;2.75
73894;BMP280;62699;50.534;12.784;2023-04-06T19:13:52;96493.69;;;2.62
73894;BMP280;62699;50.534;12.784;2023-04-06T19:18:54;96494.78;;;2.52
73894;BMP280;62699;50.534;12.784;2023-04-06T19:23:54;96487.25;;;2.38
73894;BMP280;62699;50.534;12.784;2023-04-06T19:28:55;96487.72;;;2.24
73894;BMP280;62699;50.534;12.784;2023-04-06T19:33:55;96495.16;;;2.16
73894;BMP280;62699;50.534;12.784;2023-04-06T19:38:56;96494.09;;;2.14
73894;BMP280;62699;50.534;12.784;2023-04-06T19:43:57;96488.59;;;2.08
73894;BMP280;62699;50.534;12.784;2023-04-06T19:49:01;96486.38;;;1.94
73894;BMP280;62699;50.534;12.784;2023-04-06T19:54:04;96496.28;;;1.81
73894;BMP280;62699;50.534;12.784;2023-04-06T19:59:04;96489.25;;;1.74
73894;BMP280;62699;50.534;12.784;2023-04-06T20:04:04;96494.13;;;1.63
73894;BMP280;62699;50.534;12.784;2023-04-06T20:09:05;96498.28;;;1.52
73894;BMP280;62699;50.534;12.784;2023-04-06T20:14:05;96496.97;;;1.43
73894;BMP280;62699;50.534;12.784;2023-04-06T20:19:06;96508.94;;;1.35
73894;BMP280;62699;50.534;12.784;2023-04-06T20:24:06;96509.59;;;1.27
73894;BMP280;62699;50.534;12.784;2023-04-06T20:29:06;96500.00;;;1.17
73894;BMP280;62699;50.534;12.784;2023-04-06T20:34:08;96506.34;;;1.06
73894;BMP280;62699;50.534;12.784;2023-04-06T20:39:08;96498.75;;;0.92
73894;BMP280;62699;50.534;12.784;2023-04-06T20:44:09;96487.84;;;0.90
73894;BMP280;62699;50.534;12.784;2023-04-06T20:49:11;96504.31;;;0.82
73894;BMP280;62699;50.534;12.784;2023-04-06T20:54:12;96500.47;;;0.70
73894;BMP280;62699;50.534;12.784;2023-04-06T20:59:12;96490.13;;;0.59
73894;BMP280;62699;50.534;12.784;2023-04-06T21:04:12;96488.31;;;0.56
73894;BMP280;62699;50.534;12.784;2023-04-06T21:09:13;96483.84;;;0.53
73894;BMP280;62699;50.534;12.784;2023-04-06T21:14:13;96485.59;;;0.60
73894;BMP280;62699;50.534;12.784;2023-04-06T21:19:13;96493.38;;;0.51
73894;BMP280;62699;50.534;12.784;2023-04-06T21:24:14;96488.91;;;0.48
73894;BMP280;62699;50.534;12.784;2023-04-06T21:29:14;96495.84;;;0.42
73894;BMP280;62699;50.534;12.784;2023-04-06T21:34:17;96489.91;;;0.37
73894;BMP280;62699;50.534;12.784;2023-04-06T21:39:18;96486.78;;;0.26
73894;BMP280;62699;50.534;12.784;2023-04-06T21:44:18;96484.91;;;0.27
73894;BMP280;62699;50.534;12.784;2023-04-06T21:49:19;96481.84;;;0.28
73894;BMP280;62699;50.534;12.784;2023-04-06T21:54:20;96485.13;;;0.16
73894;BMP280;62699;50.534;12.784;2023-04-06T21:59:20;96479.03;;;0.19
73894;BMP280;62699;50.534;12.784;2023-04-06T22:04:21;96472.72;;;0.13
73894;BMP280;62699;50.534;12.784;2023-04-06T22:09:22;96471.75;;;0.07
73894;BMP280;62699;50.534;12.784;2023-04-06T22:14:22;96468.75;;;0.05
73894;BMP280;62699;50.534;12.784;2023-04-06T22:19:22;96456.84;;;-0.03
73894;BMP280;62699;50.534;12.784;2023-04-06T22:24:23;96465.13;;;-0.01
73894;BMP280;62699;50.534;12.784;2023-04-06T22:29:24;96449.25;;;-0.01
73894;BMP280;62699;50.534;12.784;2023-04-06T22:34:24;96463.13;;;0.03
73894;BMP280;62699;50.534;12.784;2023-04-06T22:39:24;96453.53;;;-0.07
73894;BMP280;62699;50.534;12.784;2023-04-06T22:44:24;96458.59;;;-0.13
73894;BMP280;62699;50.534;12.784;2023-04-06T22:49:25;96447.72;;;-0.18
73894;BMP280;62699;50.534;12.784;2023-04-06T22:54:26;96453.94;;;-0.25
73894;BMP280;62699;50.534;12.784;2023-04-06T22:59:26;96455.63;;;-0.34
73894;BMP280;62699;50.534;12.784;2023-04-06T23:04:28;96448.25;;;-0.23
73894;BMP280;62699;50.534;12.784;2023-04-06T23:09:29;96451.38;;;-0.28
73894;BMP280;62699;50.534;12.784;2023-04-06T23:14:30;96445.13;;;-0.38
73894;BMP280;62699;50.534;12.784;2023-04-06T23:19:31;96449.50;;;-0.48
73894;BMP280;62699;50.534;12.784;2023-04-06T23:24:31;96455.09;;;-0.62
73894;BMP280;62699;50.534;12.784;2023-04-06T23:29:32;96449.75;;;-0.78
73894;BMP280;62699;50.534;12.784;2023-04-06T23:34:32;96445.81;;;-0.90
73894;BMP280;62699;50.534;12.784;2023-04-06T23:39:32;96439.53;;;-0.96
73894;BMP280;62699;50.534;12.784;2023-04-06T23:44:32;96443.72;;;-0.98
73894;BMP280;62699;50.534;12.784;2023-04-06T23:49:33;96439.94;;;-0.97
73894;BMP280;62699;50.534;12.784;2023-04-06T23:54:33;96427.06;;;-0.95
73894;BMP280;62699;50.534;12.784;2023-04-06T23:59:33;96424.75;;;-0.93
